KMSN/MSN METAR and TAF weather

Enter ICAO airport designator
Station Type Date Time Source
KMSN METAR 2022/01/29 13:53 UTC NOAA

KMSN 291353Z 19004KT 10SM -SN OVC028 M11/M16 A3014 RMK AO2 SLP226 P0000 T11111156


Station Type Date Time Source
KMSN Decoded METAR 2022/01/29 13:53 UTC NOAA

MADISON DANE COUNTY RGNL, WI, United States (KMSN) 43-08N 89-21W 261M
Jan 29, 2022 - 08:53 AM EST / 2022.01.29 1353 UTC
Wind: from the S (190 degrees) at 5 MPH (4 KT):0
Visibility: 10 mile(s):0
Sky conditions: overcast
Weather: light snow
Precipitation last hour: A trace
Temperature: 12.0 F (-11.1 C)
Windchill: 3 F (-16 C):1
Dew Point: 3.9 F (-15.6 C)
Relative Humidity: 69%
Pressure (altimeter): 30.14 in. Hg (1020 hPa)
ob: KMSN 291353Z 19004KT 10SM -SN OVC028 M11/M16 A3014 RMK AO2 SLP226 P0000 T11111156
cycle: 14

Station Type Date Time Source
KMSN TAF 2022/01/29 12:22 UTC NOAA

TAF KMSN 291120Z 2912/3012 VRB03KT P6SM VCSH SCT028 OVC035
TEMPO 2912/2914 OVC028
FM291400 19009KT P6SM SCT050 BKN150
FM300600 29004KT P6SM SCT010 BKN025
FM301000 32008KT P6SM SCT022 BKN250

Example: see airport list